createdAt,value
2022-12-17T00:02:32.544Z,-0.97
2022-12-17T00:05:17.673Z,-0.98
2022-12-17T00:08:02.625Z,-0.88
2022-12-17T00:10:47.988Z,-1.17
2022-12-17T00:13:42.080Z,-1.39
2022-12-17T00:16:26.886Z,-1.45
2022-12-17T00:19:12.125Z,-1.25
2022-12-17T00:21:56.905Z,-1.31
2022-12-17T00:24:42.201Z,-1.17
2022-12-17T00:27:27.201Z,-1.14
2022-12-17T00:30:12.060Z,-1.05
2022-12-17T00:32:57.301Z,-1.00
2022-12-17T00:35:42.327Z,-1.09
2022-12-17T00:38:33.650Z,-1.06
2022-12-17T00:41:18.550Z,-0.99
2022-12-17T00:44:03.341Z,-0.96
2022-12-17T00:46:48.291Z,-0.92
2022-12-17T00:49:33.571Z,-0.89
2022-12-17T00:52:18.429Z,-0.91
2022-12-17T00:55:03.378Z,-0.87
2022-12-17T00:57:48.298Z,-0.86
2022-12-17T01:00:33.700Z,-0.96
2022-12-17T01:03:26.649Z,-0.92
2022-12-17T01:06:11.605Z,-0.85
2022-12-17T01:08:56.502Z,-0.99
2022-12-17T01:11:41.898Z,-1.15
2022-12-17T01:14:27.063Z,-1.01
2022-12-17T01:17:12.100Z,-0.98
2022-12-17T01:19:57.072Z,-1.00
2022-12-17T01:22:42.190Z,-1.10
2022-12-17T01:25:27.483Z,-0.96
2022-12-17T01:28:12.398Z,-0.79
2022-12-17T01:30:57.885Z,-0.77
2022-12-17T01:33:43.356Z,-0.79
2022-12-17T01:36:39.049Z,-0.73
2022-12-17T01:39:24.422Z,-0.68
2022-12-17T01:42:09.277Z,-0.66
2022-12-17T01:45:11.938Z,-0.67
2022-12-17T01:48:11.193Z,-0.66
2022-12-17T01:51:15.168Z,-0.62
2022-12-17T01:54:05.562Z,-0.57
2022-12-17T01:56:52.004Z,-0.62
2022-12-17T01:59:41.567Z,-0.72
2022-12-17T02:02:26.408Z,-0.59
2022-12-17T02:05:11.628Z,-0.58
2022-12-17T02:08:08.865Z,-0.63
2022-12-17T02:11:06.958Z,-0.60
2022-12-17T02:13:59.845Z,-0.59
2022-12-17T02:17:00.327Z,-0.70
2022-12-17T02:20:10.677Z,-0.84
2022-12-17T02:23:14.547Z,-0.76
2022-12-17T02:26:12.251Z,-0.88
2022-12-17T02:29:02.652Z,-0.82
2022-12-17T02:31:48.572Z,-0.76
2022-12-17T02:34:33.863Z,-0.97
2022-12-17T02:37:18.694Z,-0.81
2022-12-17T02:40:03.389Z,-0.91
2022-12-17T02:42:50.073Z,-1.11
2022-12-17T02:45:37.015Z,-1.08
2022-12-17T02:48:24.744Z,-1.06
2022-12-17T02:51:09.919Z,-1.00
2022-12-17T02:54:17.912Z,-0.96
2022-12-17T02:57:02.788Z,-1.01
2022-12-17T02:59:47.785Z,-1.15
2022-12-17T03:02:32.594Z,-1.28
2022-12-17T03:05:43.470Z,-1.23
2022-12-17T03:08:23.435Z,-1.09
2022-12-17T03:11:08.385Z,-1.05
2022-12-17T03:13:53.582Z,-1.16
2022-12-17T03:16:38.473Z,-1.05
2022-12-17T03:19:24.010Z,-0.97
2022-12-17T03:22:08.851Z,-1.09
2022-12-17T03:24:53.660Z,-1.20
2022-12-17T03:27:38.550Z,-1.10
2022-12-17T03:30:24.314Z,-1.10
2022-12-17T03:33:09.452Z,-1.23
2022-12-17T03:35:54.839Z,-1.27
2022-12-17T03:38:39.782Z,-1.32
2022-12-17T03:41:24.793Z,-1.15
2022-12-17T03:44:09.590Z,-1.23
2022-12-17T03:46:54.948Z,-1.37
2022-12-17T03:49:39.798Z,-1.41
2022-12-17T03:52:24.869Z,-1.50
2022-12-17T03:55:10.227Z,-1.53
2022-12-17T03:57:55.055Z,-1.39
2022-12-17T04:00:39.830Z,-1.24
2022-12-17T04:03:24.753Z,-1.17
2022-12-17T04:06:09.973Z,-1.31
2022-12-17T04:08:54.950Z,-1.35
2022-12-17T04:11:39.859Z,-1.21
2022-12-17T04:14:44.400Z,-1.20
2022-12-17T04:17:29.740Z,-1.31
2022-12-17T04:20:14.758Z,-1.29
2022-12-17T04:22:59.656Z,-1.26
2022-12-17T04:25:44.584Z,-1.40
2022-12-17T04:28:29.291Z,-1.41
2022-12-17T04:31:14.251Z,-1.48
2022-12-17T04:33:59.431Z,-1.47
2022-12-17T04:36:44.452Z,-1.44
2022-12-17T04:39:29.534Z,-1.41
2022-12-17T04:42:14.345Z,-1.58
2022-12-17T04:44:59.132Z,-1.88
2022-12-17T04:47:48.462Z,-1.68
2022-12-17T04:50:33.802Z,-1.48
2022-12-17T04:53:20.613Z,-1.40
2022-12-17T04:56:05.801Z,-1.44
2022-12-17T04:58:51.206Z,-1.27
2022-12-17T05:01:36.244Z,-1.25
2022-12-17T05:04:21.584Z,-1.20
2022-12-17T05:07:06.850Z,-1.24
2022-12-17T05:09:52.086Z,-1.24
2022-12-17T05:12:36.875Z,-1.35
2022-12-17T05:15:22.086Z,-1.28
2022-12-17T05:18:07.005Z,-1.48
2022-12-17T05:20:51.746Z,-1.35
2022-12-17T05:23:37.704Z,-1.31
2022-12-17T05:26:25.964Z,-1.42
2022-12-17T05:29:15.676Z,-1.35
2022-12-17T05:32:01.270Z,-1.29
2022-12-17T05:34:46.114Z,-1.39
2022-12-17T05:37:30.912Z,-1.64
2022-12-17T05:40:15.821Z,-1.54
2022-12-17T05:43:00.679Z,-1.48
2022-12-17T05:45:45.553Z,-1.41
2022-12-17T05:48:30.401Z,-1.45
2022-12-17T05:51:15.305Z,-1.29
2022-12-17T05:54:00.212Z,-1.29
2022-12-17T05:56:44.965Z,-1.28
2022-12-17T05:59:29.793Z,-1.34
2022-12-17T06:02:14.597Z,-1.48
2022-12-17T06:05:02.253Z,-1.49
2022-12-17T06:07:47.435Z,-1.53
2022-12-17T06:10:32.774Z,-1.51
2022-12-17T06:13:17.689Z,-1.52
2022-12-17T06:16:07.518Z,-1.53
2022-12-17T06:18:53.622Z,-1.39
2022-12-17T06:21:38.895Z,-1.47
2022-12-17T06:24:24.177Z,-1.55
2022-12-17T06:27:09.621Z,-1.56
2022-12-17T06:29:54.411Z,-1.54
2022-12-17T06:32:39.402Z,-1.56
2022-12-17T06:35:24.991Z,-1.69
2022-12-17T06:38:20.729Z,-1.84
2022-12-17T06:41:05.573Z,-1.81
2022-12-17T06:43:51.086Z,-1.87
2022-12-17T06:46:35.996Z,-1.80
2022-12-17T06:49:21.088Z,-1.81
2022-12-17T06:52:05.985Z,-1.89
2022-12-17T06:54:50.812Z,-2.00
2022-12-17T06:57:40.457Z,-2.14
2022-12-17T07:00:27.689Z,-2.05
2022-12-17T07:03:16.952Z,-1.90
2022-12-17T07:06:02.448Z,-1.80
2022-12-17T07:08:47.925Z,-1.91
2022-12-17T07:11:33.087Z,-1.85
2022-12-17T07:14:18.255Z,-2.00
2022-12-17T07:17:03.132Z,-2.02
2022-12-17T07:19:47.982Z,-2.01
2022-12-17T07:22:32.825Z,-1.92
2022-12-17T07:25:17.756Z,-1.87
2022-12-17T07:28:11.529Z,-1.84
2022-12-17T07:30:56.455Z,-2.02
2022-12-17T07:33:41.302Z,-1.97
2022-12-17T07:36:26.695Z,-2.01
2022-12-17T07:39:11.554Z,-1.92
2022-12-17T07:41:56.711Z,-2.07
2022-12-17T07:44:41.531Z,-2.13
2022-12-17T07:47:26.717Z,-2.00
2022-12-17T07:50:11.524Z,-2.11
2022-12-17T07:52:56.378Z,-2.10
2022-12-17T07:55:41.227Z,-1.95
2022-12-17T07:58:29.210Z,-2.11
2022-12-17T08:01:14.755Z,-1.89
2022-12-17T08:03:59.745Z,-1.87
2022-12-17T08:06:44.510Z,-1.80
2022-12-17T08:09:29.406Z,-1.91
2022-12-17T08:12:14.063Z,-2.01
2022-12-17T08:14:58.949Z,-1.97
2022-12-17T08:17:43.923Z,-2.00
2022-12-17T08:20:29.202Z,-1.88
2022-12-17T08:23:24.297Z,-1.79
2022-12-17T08:26:09.728Z,-1.76
2022-12-17T08:28:54.973Z,-1.74
2022-12-17T08:31:42.715Z,-1.69
2022-12-17T08:34:27.600Z,-1.55
2022-12-17T08:37:12.383Z,-1.66
2022-12-17T08:39:57.205Z,-1.66
2022-12-17T08:42:41.986Z,-1.54
2022-12-17T08:45:27.869Z,-1.42
2022-12-17T08:48:20.807Z,-1.17
2022-12-17T08:51:05.639Z,-1.05
2022-12-17T08:53:50.394Z,-1.20
2022-12-17T08:56:35.261Z,-1.25
2022-12-17T08:59:20.022Z,-1.34
2022-12-17T09:02:05.197Z,-1.23
2022-12-17T09:04:50.074Z,-1.03
2022-12-17T09:07:35.435Z,-0.69
2022-12-17T09:10:20.694Z,-0.54
2022-12-17T09:13:06.052Z,-0.49
2022-12-17T09:15:51.672Z,-0.12
2022-12-17T09:18:38.447Z,-0.06
2022-12-17T09:21:23.761Z,-0.05
2022-12-17T09:24:08.714Z,-0.16
2022-12-17T09:26:54.113Z,0.14
2022-12-17T09:29:39.042Z,1.09
2022-12-17T09:32:23.818Z,1.62
2022-12-17T09:35:09.166Z,2.53
2022-12-17T09:37:54.022Z,2.23
2022-12-17T09:40:41.714Z,2.56
2022-12-17T09:43:57.871Z,3.44
2022-12-17T09:46:54.391Z,3.70
2022-12-17T09:49:43.453Z,3.13
2022-12-17T09:52:58.497Z,3.60
2022-12-17T09:55:48.825Z,4.12
2022-12-17T09:58:39.836Z,3.60
2022-12-17T10:01:52.208Z,3.95
2022-12-17T10:04:37.434Z,3.40
2022-12-17T10:07:30.296Z,3.21
2022-12-17T10:10:16.866Z,3.81
2022-12-17T10:13:01.731Z,3.38
2022-12-17T10:15:47.003Z,3.39
2022-12-17T10:18:35.526Z,3.22
2022-12-17T10:21:23.682Z,3.25
2022-12-17T10:24:11.777Z,3.30
2022-12-17T10:27:07.207Z,2.40
2022-12-17T10:29:52.665Z,2.10
2022-12-17T10:32:43.104Z,1.24
2022-12-17T10:35:43.529Z,0.73
2022-12-17T10:38:47.247Z,0.66
2022-12-17T10:42:00.302Z,0.59
2022-12-17T10:44:50.700Z,0.30
2022-12-17T10:47:38.994Z,0.37
2022-12-17T10:50:39.827Z,0.39
2022-12-17T10:53:38.342Z,-0.11
2022-12-17T10:56:24.517Z,0.29
2022-12-17T10:59:12.690Z,0.47
2022-12-17T11:02:00.150Z,0.69
2022-12-17T11:04:56.082Z,0.77
2022-12-17T11:07:54.785Z,0.57
2022-12-17T11:10:47.738Z,0.33
2022-12-17T11:13:43.588Z,0.04
2022-12-17T11:16:53.210Z,0.05
2022-12-17T11:19:44.129Z,0.74
2022-12-17T11:22:41.502Z,0.85
2022-12-17T11:25:51.669Z,1.18
2022-12-17T11:28:43.281Z,1.42
2022-12-17T11:31:37.586Z,1.45
2022-12-17T11:34:56.882Z,1.50
2022-12-17T11:37:53.442Z,1.43
2022-12-17T11:41:23.017Z,1.69
2022-12-17T11:44:37.744Z,2.09
2022-12-17T11:47:33.602Z,1.97
2022-12-17T11:51:12.930Z,1.78
2022-12-17T11:54:13.294Z,1.93
2022-12-17T11:57:08.858Z,1.93
2022-12-17T12:00:07.836Z,2.23
2022-12-17T12:03:03.801Z,1.99
2022-12-17T12:06:05.733Z,2.32
2022-12-17T12:09:00.774Z,2.44
2022-12-17T12:12:03.120Z,2.64
2022-12-17T12:15:09.424Z,2.64
2022-12-17T12:18:07.090Z,2.20
2022-12-17T12:21:10.184Z,2.34
2022-12-17T12:24:32.871Z,2.38
2022-12-17T12:27:27.961Z,2.44
2022-12-17T12:30:24.096Z,2.02
2022-12-17T12:33:47.390Z,2.17
2022-12-17T12:36:35.935Z,2.39
2022-12-17T12:39:21.383Z,2.95
2022-12-17T12:42:17.450Z,3.05
2022-12-17T12:45:26.236Z,2.68
2022-12-17T12:48:17.464Z,2.39
2022-12-17T12:51:33.750Z,1.93
2022-12-17T12:54:38.839Z,1.88
2022-12-17T12:57:29.597Z,1.72
2022-12-17T13:00:18.785Z,2.15
2022-12-17T13:03:04.236Z,1.89
2022-12-17T13:05:44.535Z,1.70
2022-12-17T13:08:10.994Z,1.35
2022-12-17T13:10:37.891Z,1.39
2022-12-17T13:13:22.716Z,1.72
2022-12-17T13:15:53.772Z,1.56
2022-12-17T13:18:37.286Z,1.17
2022-12-17T13:21:24.590Z,0.99
2022-12-17T13:23:51.251Z,0.88
2022-12-17T13:26:31.070Z,0.59
2022-12-17T13:28:58.147Z,0.13
2022-12-17T13:31:54.019Z,0.11
2022-12-17T13:34:27.082Z,0.37
2022-12-17T13:37:00.901Z,0.21
2022-12-17T13:39:45.374Z,0.17
2022-12-17T13:42:31.387Z,-0.24
2022-12-17T13:44:59.030Z,-0.13
2022-12-17T13:47:35.146Z,-0.42
2022-12-17T13:50:32.916Z,-0.17
2022-12-17T13:52:51.108Z,-0.24
2022-12-17T13:55:22.901Z,-0.40
2022-12-17T13:57:50.539Z,-0.47
2022-12-17T14:00:23.261Z,-0.51
2022-12-17T14:02:50.579Z,-0.38
2022-12-17T14:05:37.898Z,-0.41
2022-12-17T14:08:05.896Z,-0.35
2022-12-17T14:10:32.866Z,-0.28
2022-12-17T14:13:05.763Z,-0.75
2022-12-17T14:15:32.640Z,-0.75
2022-12-17T14:18:00.025Z,-0.54
2022-12-17T14:20:34.029Z,-0.63
2022-12-17T14:23:10.738Z,-0.48
2022-12-17T14:25:40.238Z,-0.36
2022-12-17T14:28:29.063Z,-0.49
2022-12-17T14:31:29.594Z,-0.99
2022-12-17T14:34:11.224Z,-0.87
2022-12-17T14:36:43.696Z,-0.87
2022-12-17T14:39:20.962Z,-0.59
2022-12-17T14:42:06.184Z,-0.49
2022-12-17T14:44:33.081Z,-0.44
2022-12-17T14:47:29.052Z,-0.39
2022-12-17T14:50:21.762Z,-0.31
2022-12-17T14:52:50.802Z,-0.34
2022-12-17T14:55:39.365Z,-0.36
2022-12-17T14:58:11.899Z,-0.33
2022-12-17T15:00:40.394Z,-0.43
2022-12-17T15:03:17.922Z,-0.50
2022-12-17T15:05:48.951Z,-0.72
2022-12-17T15:08:17.211Z,-0.74
2022-12-17T15:10:43.883Z,-1.03
2022-12-17T15:13:10.431Z,-1.04
2022-12-17T15:15:36.985Z,-1.03
2022-12-17T15:18:03.639Z,-1.00
2022-12-17T15:20:31.587Z,-0.94
2022-12-17T15:22:58.085Z,-1.08
2022-12-17T15:25:24.531Z,-1.34
2022-12-17T15:27:51.196Z,-1.64
2022-12-17T15:30:18.189Z,-1.47
2022-12-17T15:32:45.621Z,-1.34
2022-12-17T15:35:13.188Z,-1.33
2022-12-17T15:37:40.048Z,-1.15
2022-12-17T15:40:08.169Z,-1.09
2022-12-17T15:42:53.013Z,-1.12
2022-12-17T15:45:19.463Z,-1.13
2022-12-17T15:47:45.967Z,-1.34
2022-12-17T15:50:12.440Z,-1.39
2022-12-17T15:52:38.909Z,-1.50
2022-12-17T15:55:06.097Z,-1.34
2022-12-17T15:57:32.549Z,-1.22
2022-12-17T15:59:59.115Z,-1.27
2022-12-17T16:02:25.790Z,-1.54
2022-12-17T16:04:52.715Z,-1.56
2022-12-17T16:07:19.201Z,-1.41
2022-12-17T16:09:45.657Z,-1.38
2022-12-17T16:12:12.098Z,-1.27
2022-12-17T16:14:38.573Z,-1.32
2022-12-17T16:17:05.084Z,-1.15
2022-12-17T16:19:31.637Z,-1.45
2022-12-17T16:21:58.170Z,-1.48
2022-12-17T16:24:24.769Z,-1.91
2022-12-17T16:26:51.615Z,-2.11
2022-12-17T16:29:18.165Z,-1.87
2022-12-17T16:31:46.508Z,-1.83
2022-12-17T16:34:13.612Z,-1.74
2022-12-17T16:36:40.270Z,-1.69
2022-12-17T16:39:06.816Z,-1.69
2022-12-17T16:41:34.351Z,-1.62
2022-12-17T16:44:01.179Z,-1.69
2022-12-17T16:46:32.214Z,-1.72
2022-12-17T16:51:31.997Z,-1.58
2022-12-17T16:53:59.312Z,-1.78
2022-12-17T16:56:28.174Z,-1.68
2022-12-17T16:58:55.908Z,-1.77
2022-12-17T17:01:24.770Z,-1.88
2022-12-17T17:03:51.471Z,-2.10
2022-12-17T17:06:19.445Z,-2.16
2022-12-17T17:08:46.182Z,-2.14
2022-12-17T17:11:14.217Z,-2.32
2022-12-17T17:13:40.696Z,-2.21
2022-12-17T17:16:09.167Z,-2.26
2022-12-17T17:18:36.744Z,-2.09
2022-12-17T17:21:17.116Z,-1.94
2022-12-17T17:23:43.664Z,-1.86
2022-12-17T17:26:10.678Z,-2.42
2022-12-17T17:28:38.408Z,-2.46
2022-12-17T17:31:13.056Z,-2.28
2022-12-17T17:33:46.548Z,-1.98
2022-12-17T17:36:30.102Z,-1.92
2022-12-17T17:38:59.091Z,-1.97
2022-12-17T17:41:30.515Z,-1.95
2022-12-17T17:44:02.462Z,-1.87
2022-12-17T17:46:30.776Z,-1.87
2022-12-17T17:48:59.324Z,-1.80
2022-12-17T17:51:59.965Z,-1.91
2022-12-17T17:54:15.172Z,-1.98
2022-12-17T17:56:42.803Z,-2.01
2022-12-17T17:59:14.931Z,-2.02
2022-12-17T18:01:44.082Z,-2.05
2022-12-17T18:04:14.786Z,-2.14
2022-12-17T18:06:57.435Z,-2.04
2022-12-17T18:09:29.298Z,-2.35
2022-12-17T18:11:55.786Z,-2.30
2022-12-17T18:14:22.498Z,-2.34
2022-12-17T18:16:48.998Z,-2.56
2022-12-17T18:19:20.606Z,-2.91
2022-12-17T18:21:48.299Z,-2.48
2022-12-17T18:24:23.114Z,-2.30
2022-12-17T18:26:50.876Z,-2.56
2022-12-17T18:29:20.942Z,-2.68
2022-12-17T18:31:51.683Z,-2.40
2022-12-17T18:34:20.919Z,-2.21
2022-12-17T18:36:48.222Z,-2.11
2022-12-17T18:39:23.401Z,-2.25
2022-12-17T18:42:09.344Z,-2.23
2022-12-17T18:44:41.783Z,-2.19
2022-12-17T18:47:09.665Z,-2.19
2022-12-17T18:49:36.547Z,-2.32
2022-12-17T18:52:03.526Z,-2.27
2022-12-17T18:54:31.337Z,-2.23
2022-12-17T18:57:02.149Z,-2.12
2022-12-17T18:59:30.297Z,-2.26
2022-12-17T19:01:57.882Z,-2.18
2022-12-17T19:04:25.700Z,-2.43
2022-12-17T19:06:53.650Z,-2.28
2022-12-17T19:09:29.176Z,-2.32
2022-12-17T19:11:56.163Z,-2.26
2022-12-17T19:14:23.427Z,-2.22
2022-12-17T19:16:51.735Z,-2.18
2022-12-17T19:19:19.557Z,-2.27
2022-12-17T19:21:46.704Z,-2.37
2022-12-17T19:24:15.502Z,-2.59
2022-12-17T19:26:42.822Z,-2.60
2022-12-17T19:29:12.117Z,-2.53
2022-12-17T19:31:39.138Z,-2.53
2022-12-17T19:34:07.786Z,-2.54
2022-12-17T19:36:36.086Z,-2.72
2022-12-17T19:39:06.488Z,-2.65
2022-12-17T19:41:33.994Z,-2.64
2022-12-17T19:44:03.195Z,-2.51
2022-12-17T19:46:31.149Z,-2.56
2022-12-17T19:48:58.023Z,-2.53
2022-12-17T19:51:26.568Z,-2.47
2022-12-17T19:53:54.756Z,-2.50
2022-12-17T19:56:31.539Z,-2.69
2022-12-17T19:59:02.206Z,-2.84
2022-12-17T20:01:31.352Z,-2.74
2022-12-17T20:03:58.827Z,-2.69
2022-12-17T20:06:28.894Z,-2.55
2022-12-17T20:08:55.537Z,-2.48
2022-12-17T20:11:34.436Z,-2.49
2022-12-17T20:14:17.593Z,-2.50
2022-12-17T20:16:46.942Z,-2.55
2022-12-17T20:19:20.280Z,-2.50
2022-12-17T20:21:47.807Z,-2.42
2022-12-17T20:24:15.357Z,-2.40
2022-12-17T20:26:43.105Z,-2.35
2022-12-17T20:29:10.353Z,-2.27
2022-12-17T20:31:37.275Z,-2.20
2022-12-17T20:34:05.070Z,-2.30
2022-12-17T20:36:31.757Z,-2.18
2022-12-17T20:38:59.000Z,-2.14
2022-12-17T20:41:28.282Z,-2.03
2022-12-17T20:43:55.419Z,-2.05
2022-12-17T20:46:24.578Z,-1.87
2022-12-17T20:48:51.981Z,-2.14
2022-12-17T20:51:23.846Z,-2.03
2022-12-17T20:53:52.376Z,-2.16
2022-12-17T20:56:23.120Z,-2.15
2022-12-17T20:58:53.886Z,-2.24
2022-12-17T21:01:22.610Z,-2.14
2022-12-17T21:03:51.015Z,-2.21
2022-12-17T21:06:21.053Z,-2.10
2022-12-17T21:08:50.202Z,-2.01
2022-12-17T21:11:22.681Z,-1.98
2022-12-17T21:13:49.456Z,-1.92
2022-12-17T21:16:25.784Z,-1.87
2022-12-17T21:18:52.635Z,-1.78
2022-12-17T21:21:22.609Z,-1.70
2022-12-17T21:23:50.011Z,-1.69
2022-12-17T21:26:20.931Z,-1.68
2022-12-17T21:28:49.958Z,-1.56
2022-12-17T21:31:50.046Z,-1.53
2022-12-17T21:34:21.769Z,-1.57
2022-12-17T21:36:49.268Z,-1.61
2022-12-17T21:39:17.012Z,-1.69
2022-12-17T21:42:06.841Z,-1.71
2022-12-17T21:44:33.347Z,-1.69
2022-12-17T21:47:00.159Z,-1.67
2022-12-17T21:49:26.926Z,-1.55
2022-12-17T21:51:54.510Z,-1.59
2022-12-17T21:54:20.987Z,-1.64
2022-12-17T21:56:48.019Z,-1.43
2022-12-17T21:59:14.532Z,-1.36
2022-12-17T22:01:41.407Z,-1.29
2022-12-17T22:04:08.031Z,-1.22
2022-12-17T22:06:53.761Z,-1.20
2022-12-17T22:09:33.549Z,-1.01
2022-12-17T22:12:29.964Z,-0.77
2022-12-17T22:14:56.395Z,-0.82
2022-12-17T22:17:23.378Z,-0.71
2022-12-17T22:19:49.805Z,-0.68
2022-12-17T22:22:16.336Z,-0.59
2022-12-17T22:24:42.938Z,-0.64
2022-12-17T22:27:09.893Z,-0.60
2022-12-17T22:29:55.416Z,-0.54
2022-12-17T22:32:40.683Z,-0.54
2022-12-17T22:36:10.193Z,-0.51
2022-12-17T22:41:25.904Z,-0.55
2022-12-17T22:44:32.173Z,-0.46
2022-12-17T22:44:42.468Z,-0.54
2022-12-17T22:46:18.209Z,-0.47
2022-12-17T22:48:45.081Z,-0.55
2022-12-17T22:51:20.555Z,-0.47
2022-12-17T22:53:53.687Z,-0.39
2022-12-17T22:56:36.197Z,-0.44
2022-12-17T22:59:07.841Z,-0.42
2022-12-17T23:01:35.187Z,-0.40
2022-12-17T23:04:03.581Z,-0.49
2022-12-17T23:06:30.243Z,-0.38
2022-12-17T23:08:56.784Z,-0.40
2022-12-17T23:11:26.021Z,-0.35
2022-12-17T23:13:53.149Z,-0.37
2022-12-17T23:16:19.936Z,-0.33
2022-12-17T23:18:47.779Z,-0.26
2022-12-17T23:21:21.692Z,-0.22
2022-12-17T23:23:48.158Z,-0.22
2022-12-17T23:26:23.927Z,-0.18
2022-12-17T23:28:58.537Z,-0.20
2022-12-17T23:31:27.597Z,-0.38
2022-12-17T23:33:54.604Z,-0.38
2022-12-17T23:36:23.254Z,-0.34
2022-12-17T23:38:50.710Z,-0.37
2022-12-17T23:41:22.866Z,-0.22
2022-12-17T23:43:49.654Z,-0.28
2022-12-17T23:46:18.820Z,-0.32
2022-12-17T23:48:47.003Z,-0.47
2022-12-17T23:51:15.744Z,-0.71
2022-12-17T23:53:43.435Z,-0.92
2022-12-17T23:56:14.305Z,-1.03
2022-12-17T23:58:42.515Z,-1.11
